createdAt,value
2023-10-15T00:01:37.823Z,1.20
2023-10-15T00:04:04.970Z,1.00
2023-10-15T00:06:31.538Z,1.23
2023-10-15T00:09:00.753Z,1.52
2023-10-15T00:11:27.212Z,1.23
2023-10-15T00:13:53.733Z,1.10
2023-10-15T00:16:22.185Z,1.40
2023-10-15T00:18:49.059Z,1.25
2023-10-15T00:21:16.064Z,1.45
2023-10-15T00:23:44.739Z,1.15
2023-10-15T00:26:15.530Z,0.98
2023-10-15T00:28:42.787Z,1.00
2023-10-15T00:31:10.952Z,1.30
2023-10-15T00:33:40.839Z,1.30
2023-10-15T00:36:07.660Z,1.02
2023-10-15T00:38:38.079Z,1.13
2023-10-15T00:41:10.662Z,0.85
2023-10-15T00:43:37.465Z,1.50
2023-10-15T00:46:07.819Z,1.50
2023-10-15T00:48:37.365Z,1.00
2023-10-15T00:51:10.695Z,1.27
2023-10-15T00:53:48.899Z,1.10
2023-10-15T00:56:17.776Z,1.13
2023-10-15T00:58:44.281Z,1.00
2023-10-15T01:01:21.956Z,1.05
2023-10-15T01:03:55.842Z,1.20
2023-10-15T01:06:35.488Z,1.13
2023-10-15T01:09:12.175Z,1.08
2023-10-15T01:11:46.240Z,1.25
2023-10-15T01:14:12.999Z,1.27
2023-10-15T01:16:41.196Z,1.13
2023-10-15T01:19:11.572Z,1.15
2023-10-15T01:21:51.072Z,0.90
2023-10-15T01:24:19.571Z,1.40
2023-10-15T01:27:06.235Z,1.30
2023-10-15T01:29:35.469Z,1.50
2023-10-15T01:32:11.851Z,1.25
2023-10-15T01:34:39.343Z,1.20
2023-10-15T01:37:14.485Z,1.20
2023-10-15T01:39:41.082Z,1.15
2023-10-15T01:42:08.470Z,1.23
2023-10-15T01:44:40.699Z,1.40
2023-10-15T01:47:07.241Z,1.10
2023-10-15T01:49:34.928Z,1.00
2023-10-15T01:52:11.429Z,1.30
2023-10-15T01:54:38.237Z,1.10
2023-10-15T01:57:07.413Z,1.15
2023-10-15T01:59:46.810Z,1.48
2023-10-15T02:02:19.317Z,1.20
2023-10-15T02:04:46.456Z,1.15
2023-10-15T02:07:21.147Z,1.20
2023-10-15T02:09:48.102Z,1.38
2023-10-15T02:12:15.781Z,1.10
2023-10-15T02:14:43.274Z,1.48
2023-10-15T02:17:15.876Z,1.13
2023-10-15T02:19:42.750Z,1.30
2023-10-15T02:22:15.778Z,1.10
2023-10-15T02:24:47.814Z,1.70
2023-10-15T02:27:26.099Z,1.33
2023-10-15T02:29:53.026Z,1.17
2023-10-15T02:32:30.019Z,1.00
2023-10-15T02:34:59.181Z,1.17
2023-10-15T02:37:29.908Z,1.05
2023-10-15T02:40:00.557Z,1.08
2023-10-15T02:42:36.991Z,1.48
2023-10-15T02:45:07.858Z,1.27
2023-10-15T02:47:49.287Z,1.15
2023-10-15T02:50:27.423Z,1.27
2023-10-15T02:52:56.217Z,1.30
2023-10-15T02:55:29.448Z,1.30
2023-10-15T02:58:02.249Z,1.10
2023-10-15T03:00:29.327Z,1.20
2023-10-15T03:02:57.525Z,1.30
2023-10-15T03:05:31.721Z,1.33
2023-10-15T03:08:01.425Z,1.35
2023-10-15T03:10:56.892Z,1.13
2023-10-15T03:13:23.522Z,0.95
2023-10-15T03:15:50.242Z,1.50
2023-10-15T03:18:25.658Z,1.23
2023-10-15T03:21:11.395Z,1.20
2023-10-15T03:23:40.520Z,1.08
2023-10-15T03:26:07.214Z,1.23
2023-10-15T03:28:36.094Z,1.45
2023-10-15T03:31:02.766Z,1.17
2023-10-15T03:33:31.561Z,1.40
2023-10-15T03:38:25.250Z,1.20
2023-10-15T03:40:51.849Z,1.38
2023-10-15T03:43:21.765Z,1.10
2023-10-15T03:45:52.030Z,1.42
2023-10-15T03:48:23.487Z,1.10
2023-10-15T03:50:55.965Z,1.23
2023-10-15T03:53:29.073Z,1.33
2023-10-15T03:55:59.868Z,1.30
2023-10-15T03:58:26.985Z,1.40
2023-10-15T04:01:12.920Z,1.60
2023-10-15T04:03:43.787Z,1.00
2023-10-15T04:06:11.724Z,1.50
2023-10-15T04:08:41.121Z,1.48
2023-10-15T04:11:08.184Z,1.55
2023-10-15T04:13:36.276Z,1.42
2023-10-15T04:16:02.842Z,1.00
2023-10-15T04:18:31.032Z,1.30
2023-10-15T04:20:57.738Z,1.17
2023-10-15T04:23:33.057Z,1.20
2023-10-15T04:26:02.570Z,1.02
2023-10-15T04:28:29.738Z,1.23
2023-10-15T04:30:57.414Z,1.20
2023-10-15T04:33:27.685Z,1.15
2023-10-15T04:35:57.483Z,1.20
2023-10-15T04:38:29.237Z,1.20
2023-10-15T04:40:59.365Z,1.10
2023-10-15T04:43:26.816Z,1.10
2023-10-15T04:45:56.875Z,1.20
2023-10-15T04:48:34.357Z,1.05
2023-10-15T04:51:05.889Z,1.40
2023-10-15T04:53:32.931Z,1.10
2023-10-15T04:56:02.058Z,1.10
2023-10-15T04:58:29.017Z,0.95
2023-10-15T05:00:55.790Z,1.50
2023-10-15T05:03:22.378Z,1.10
2023-10-15T05:05:48.927Z,1.10
2023-10-15T05:08:18.372Z,1.35
2023-10-15T05:10:47.316Z,1.00
2023-10-15T05:13:14.570Z,1.15
2023-10-15T05:15:43.945Z,1.35
2023-10-15T05:18:10.854Z,1.20
2023-10-15T05:20:37.449Z,1.70
2023-10-15T05:23:05.199Z,1.20
2023-10-15T05:25:31.851Z,1.60
2023-10-15T05:27:58.533Z,1.73
2023-10-15T05:30:25.009Z,1.55
2023-10-15T05:32:51.612Z,1.30
2023-10-15T05:35:19.093Z,1.75
2023-10-15T05:37:46.961Z,1.30
2023-10-15T05:40:17.411Z,1.50
2023-10-15T05:42:45.015Z,1.40
2023-10-15T05:45:11.524Z,1.50
2023-10-15T05:47:38.658Z,1.52
2023-10-15T05:50:06.014Z,1.20
2023-10-15T05:52:33.256Z,1.10
2023-10-15T05:55:01.460Z,1.70
2023-10-15T05:57:29.500Z,1.30
2023-10-15T05:59:56.020Z,1.45
2023-10-15T06:02:22.530Z,1.40
2023-10-15T06:04:49.373Z,1.33
2023-10-15T06:07:16.684Z,1.40
2023-10-15T06:09:46.282Z,1.40
2023-10-15T06:12:14.430Z,1.20
2023-10-15T06:14:41.185Z,2.08
2023-10-15T06:17:07.834Z,1.63
2023-10-15T06:19:35.524Z,1.77
2023-10-15T06:22:02.455Z,1.38
2023-10-15T06:24:28.982Z,1.30
2023-10-15T06:26:55.462Z,1.20
2023-10-15T06:29:21.922Z,2.05
2023-10-15T06:31:48.447Z,1.90
2023-10-15T06:34:17.373Z,1.73
2023-10-15T06:36:43.967Z,2.03
2023-10-15T06:39:10.516Z,1.60
2023-10-15T06:41:37.736Z,3.10
2023-10-15T06:44:04.782Z,1.95
2023-10-15T06:46:32.688Z,1.42
2023-10-15T06:48:59.652Z,1.30
2023-10-15T06:51:27.463Z,1.90
2023-10-15T06:53:54.071Z,1.38
2023-10-15T06:56:20.548Z,1.40
2023-10-15T06:58:47.134Z,1.30
2023-10-15T07:01:14.372Z,1.55
2023-10-15T07:03:41.285Z,1.50
2023-10-15T07:06:07.940Z,2.35
2023-10-15T07:08:34.560Z,1.65
2023-10-15T07:11:01.125Z,1.17
2023-10-15T07:13:28.189Z,1.38
2023-10-15T07:15:55.610Z,1.45
2023-10-15T07:18:22.224Z,1.60
2023-10-15T07:20:48.796Z,1.55
2023-10-15T07:23:15.669Z,1.40
2023-10-15T07:25:44.501Z,1.33
2023-10-15T07:28:11.478Z,1.27
2023-10-15T07:30:38.179Z,1.30
2023-10-15T07:33:05.108Z,1.50
2023-10-15T07:35:32.082Z,1.70
2023-10-15T07:37:59.237Z,1.40
2023-10-15T07:40:29.064Z,1.40
2023-10-15T07:43:01.337Z,1.70
2023-10-15T07:45:30.385Z,1.40
2023-10-15T07:48:00.926Z,1.65
2023-10-15T07:50:29.090Z,1.80
2023-10-15T07:52:56.599Z,1.40
2023-10-15T07:55:27.521Z,1.90
2023-10-15T07:57:54.488Z,1.60
2023-10-15T08:00:24.595Z,1.17
2023-10-15T08:02:58.577Z,1.50
2023-10-15T08:05:26.388Z,1.98
2023-10-15T08:07:54.605Z,1.70
2023-10-15T08:10:25.801Z,1.48
2023-10-15T08:12:53.563Z,1.58
2023-10-15T08:15:20.659Z,1.50
2023-10-15T08:17:50.070Z,1.70
2023-10-15T08:20:17.008Z,1.40
2023-10-15T08:22:45.458Z,1.33
2023-10-15T08:25:15.658Z,1.88
2023-10-15T08:27:45.533Z,1.52
2023-10-15T08:30:13.847Z,1.85
2023-10-15T08:32:47.934Z,1.40
2023-10-15T08:35:15.656Z,1.60
2023-10-15T08:37:46.809Z,1.50
2023-10-15T08:40:18.310Z,1.40
2023-10-15T08:42:51.751Z,1.50
2023-10-15T08:45:23.274Z,1.50
2023-10-15T08:47:51.439Z,1.58
2023-10-15T08:50:21.573Z,1.40
2023-10-15T08:52:49.523Z,1.90
2023-10-15T08:55:18.346Z,1.70
2023-10-15T08:57:45.701Z,1.67
2023-10-15T09:00:31.700Z,1.30
2023-10-15T09:03:04.367Z,1.30
2023-10-15T09:05:31.975Z,1.65
2023-10-15T09:08:08.454Z,1.20
2023-10-15T09:10:43.716Z,1.20
2023-10-15T09:13:16.419Z,1.30
2023-10-15T09:15:44.721Z,1.83
2023-10-15T09:18:17.760Z,1.02
2023-10-15T09:20:47.053Z,1.60
2023-10-15T09:23:13.778Z,0.95
2023-10-15T09:25:42.440Z,1.30
2023-10-15T09:28:09.444Z,1.15
2023-10-15T09:30:35.985Z,1.20
2023-10-15T09:33:02.481Z,1.10
2023-10-15T09:35:30.547Z,1.27
2023-10-15T09:37:58.283Z,1.23
2023-10-15T09:40:25.724Z,1.00
2023-10-15T09:42:55.267Z,1.00
2023-10-15T09:45:25.559Z,0.90
2023-10-15T09:47:59.253Z,1.10
2023-10-15T09:50:28.811Z,0.82
2023-10-15T09:52:58.162Z,0.90
2023-10-15T09:55:25.555Z,1.15
2023-10-15T09:57:56.425Z,0.90
2023-10-15T10:00:43.158Z,0.88
2023-10-15T10:03:49.035Z,1.00
2023-10-15T10:06:54.553Z,0.90
2023-10-15T10:09:37.827Z,1.00
2023-10-15T10:12:38.418Z,1.38
2023-10-15T10:15:50.729Z,1.00
2023-10-15T10:18:18.323Z,1.10
2023-10-15T10:20:48.334Z,1.10
2023-10-15T10:23:15.748Z,0.90
2023-10-15T10:25:49.606Z,0.80
2023-10-15T10:28:19.535Z,1.38
2023-10-15T10:30:59.816Z,1.00
2023-10-15T10:33:50.492Z,3.28
2023-10-15T10:36:28.472Z,0.90
2023-10-15T10:38:59.242Z,0.60
2023-10-15T10:41:37.248Z,0.52
2023-10-15T10:44:22.771Z,0.85
2023-10-15T10:46:57.707Z,0.85
2023-10-15T10:49:42.056Z,1.00
2023-10-15T10:52:15.714Z,1.00
2023-10-15T10:54:43.679Z,1.40
2023-10-15T10:57:11.046Z,1.00
2023-10-15T10:59:39.414Z,0.80
2023-10-15T11:04:34.211Z,0.90
2023-10-15T11:07:01.651Z,1.00
2023-10-15T11:09:29.822Z,1.20
2023-10-15T11:14:26.243Z,0.70
2023-10-15T11:16:53.689Z,0.70
2023-10-15T11:19:33.586Z,1.10
2023-10-15T11:22:00.169Z,1.27
2023-10-15T11:24:29.764Z,1.27
2023-10-15T11:26:56.751Z,3.92
2023-10-15T11:29:24.882Z,3.03
2023-10-15T11:31:57.064Z,3.97
2023-10-15T11:34:25.856Z,1.23
2023-10-15T11:36:57.142Z,0.63
2023-10-15T11:39:38.294Z,0.85
2023-10-15T11:42:07.484Z,0.90
2023-10-15T11:44:38.024Z,1.23
2023-10-15T11:47:13.083Z,0.82
2023-10-15T11:49:43.685Z,1.20
2023-10-15T11:52:16.404Z,0.90
2023-10-15T11:54:51.132Z,1.10
2023-10-15T11:57:22.434Z,0.90
2023-10-15T11:59:51.141Z,1.15
2023-10-15T12:02:19.918Z,0.93
2023-10-15T12:04:52.777Z,1.10
2023-10-15T12:07:22.474Z,1.05
2023-10-15T12:09:49.696Z,1.40
2023-10-15T12:12:16.612Z,1.00
2023-10-15T12:14:43.105Z,0.73
2023-10-15T12:17:09.712Z,1.00
2023-10-15T12:19:36.211Z,0.68
2023-10-15T12:22:04.470Z,0.90
2023-10-15T12:24:30.987Z,1.02
2023-10-15T12:26:57.479Z,0.70
2023-10-15T12:31:58.073Z,1.08
2023-10-15T12:34:25.704Z,0.98
2023-10-15T12:36:54.023Z,0.90
2023-10-15T12:39:28.279Z,1.20
2023-10-15T12:41:55.511Z,1.13
2023-10-15T12:44:23.767Z,1.17
2023-10-15T12:46:52.140Z,1.00
2023-10-15T12:49:20.354Z,0.80
2023-10-15T12:51:47.180Z,0.70
2023-10-15T12:54:14.635Z,1.15
2023-10-15T12:56:41.435Z,0.90
2023-10-15T12:59:08.340Z,0.75
2023-10-15T13:01:35.338Z,0.85
2023-10-15T13:04:01.929Z,0.90
2023-10-15T13:06:28.471Z,0.80
2023-10-15T13:08:57.033Z,0.40
2023-10-15T13:11:24.052Z,0.82
2023-10-15T13:13:50.670Z,1.60
2023-10-15T13:16:19.383Z,0.88
2023-10-15T13:18:46.194Z,1.20
2023-10-15T13:21:14.128Z,0.85
2023-10-15T13:23:40.590Z,0.77
2023-10-15T13:26:07.208Z,0.90
2023-10-15T13:28:33.698Z,1.90
2023-10-15T13:31:00.405Z,0.90
2023-10-15T13:33:27.085Z,0.55
2023-10-15T13:35:55.760Z,1.00
2023-10-15T13:38:22.797Z,0.68
2023-10-15T13:40:49.607Z,0.60
2023-10-15T13:43:16.356Z,0.50
2023-10-15T13:45:43.378Z,1.20
2023-10-15T13:48:11.712Z,0.73
2023-10-15T13:53:05.085Z,0.70
2023-10-15T13:55:31.822Z,0.95
2023-10-15T13:57:59.585Z,0.90
2023-10-15T14:00:28.913Z,0.82
2023-10-15T14:02:57.658Z,0.93
2023-10-15T14:05:26.888Z,0.73
2023-10-15T14:07:55.484Z,0.80
2023-10-15T14:10:22.431Z,0.60
2023-10-15T14:12:51.787Z,0.63
2023-10-15T14:15:21.510Z,0.70
2023-10-15T14:17:48.166Z,0.70
2023-10-15T14:20:18.484Z,0.75
2023-10-15T14:22:46.721Z,0.73
2023-10-15T14:25:13.951Z,1.00
2023-10-15T14:27:41.507Z,0.70
2023-10-15T14:30:11.480Z,0.75
2023-10-15T14:32:38.654Z,1.20
2023-10-15T14:35:07.369Z,0.90
2023-10-15T14:37:35.288Z,0.82
2023-10-15T14:40:01.940Z,0.80
2023-10-15T14:42:28.472Z,0.65
2023-10-15T14:44:55.265Z,0.90
2023-10-15T14:47:22.067Z,0.90
2023-10-15T14:49:48.738Z,1.00
2023-10-15T14:52:15.223Z,0.73
2023-10-15T14:54:41.789Z,1.02
2023-10-15T14:57:14.114Z,0.80
2023-10-15T14:59:40.812Z,0.80
2023-10-15T15:02:10.107Z,0.70
2023-10-15T15:04:39.635Z,1.20
2023-10-15T15:07:06.107Z,0.63
2023-10-15T15:09:33.380Z,0.80
2023-10-15T15:11:59.869Z,1.00
2023-10-15T15:14:26.559Z,0.80
2023-10-15T15:16:53.374Z,1.05
2023-10-15T15:19:19.934Z,0.70
2023-10-15T15:21:46.469Z,0.50
2023-10-15T15:24:16.929Z,0.60
2023-10-15T15:26:45.077Z,0.80
2023-10-15T15:29:14.536Z,0.60
2023-10-15T15:31:44.612Z,0.40
2023-10-15T15:34:14.060Z,1.10
2023-10-15T15:36:40.543Z,1.90
2023-10-15T15:39:10.593Z,1.88
2023-10-15T15:41:37.908Z,1.90
2023-10-15T15:44:06.194Z,1.90
2023-10-15T15:49:01.926Z,2.05
2023-10-15T15:51:28.396Z,1.15
2023-10-15T15:53:54.852Z,1.00
2023-10-15T15:56:22.525Z,0.80
2023-10-15T15:58:49.093Z,0.82
2023-10-15T16:01:33.142Z,0.93
2023-10-15T16:04:06.572Z,0.93
2023-10-15T16:06:33.209Z,1.20
2023-10-15T16:08:59.761Z,1.10
2023-10-15T16:11:26.247Z,0.90
2023-10-15T16:13:53.808Z,0.60
2023-10-15T16:16:21.065Z,0.70
2023-10-15T16:18:47.563Z,0.68
2023-10-15T16:21:14.869Z,1.08
2023-10-15T16:23:41.309Z,0.90
2023-10-15T16:26:07.864Z,1.15
2023-10-15T16:28:34.446Z,1.33
2023-10-15T16:31:02.432Z,1.13
2023-10-15T16:33:29.112Z,1.38
2023-10-15T16:35:55.603Z,1.20
2023-10-15T16:38:22.111Z,1.10
2023-10-15T16:40:48.688Z,1.30
2023-10-15T16:43:15.748Z,1.40
2023-10-15T16:45:42.410Z,1.50
2023-10-15T16:48:09.565Z,1.08
2023-10-15T16:50:38.384Z,1.52
2023-10-15T16:53:12.006Z,1.60
2023-10-15T16:55:39.728Z,1.30
2023-10-15T16:58:06.439Z,1.85
2023-10-15T17:00:35.023Z,2.33
2023-10-15T17:03:02.362Z,2.63
2023-10-15T17:05:30.091Z,2.00
2023-10-15T17:07:56.960Z,1.60
2023-10-15T17:10:23.474Z,1.60
2023-10-15T17:12:49.918Z,1.30
2023-10-15T17:15:16.464Z,1.42
2023-10-15T17:17:43.487Z,1.55
2023-10-15T17:20:11.584Z,2.05
2023-10-15T17:22:38.308Z,1.30
2023-10-15T17:25:05.637Z,1.55
2023-10-15T17:27:34.056Z,1.67
2023-10-15T17:30:17.711Z,1.65
2023-10-15T17:32:44.775Z,1.67
2023-10-15T17:35:12.780Z,1.10
2023-10-15T17:37:40.173Z,1.20
2023-10-15T17:40:07.924Z,1.27
2023-10-15T17:42:37.163Z,1.30
2023-10-15T17:45:04.372Z,1.73
2023-10-15T17:47:30.917Z,2.70
2023-10-15T17:49:57.420Z,2.10
2023-10-15T17:52:23.837Z,3.22
2023-10-15T17:54:50.301Z,1.65
2023-10-15T17:57:17.722Z,1.80
2023-10-15T17:59:44.361Z,1.95
2023-10-15T18:02:10.829Z,2.30
2023-10-15T18:04:37.639Z,2.05
2023-10-15T18:07:04.148Z,2.90
2023-10-15T18:09:35.202Z,2.10
2023-10-15T18:12:02.648Z,1.92
2023-10-15T18:14:29.981Z,2.30
2023-10-15T18:16:57.114Z,2.13
2023-10-15T18:19:23.858Z,1.10
2023-10-15T18:21:50.447Z,1.25
2023-10-15T18:24:17.060Z,1.30
2023-10-15T18:26:44.176Z,1.20
2023-10-15T18:29:10.667Z,1.13
2023-10-15T18:31:37.185Z,1.00
2023-10-15T18:34:03.943Z,1.05
2023-10-15T18:36:30.553Z,1.42
2023-10-15T18:38:57.278Z,1.40
2023-10-15T18:41:23.844Z,2.00
2023-10-15T18:43:50.459Z,1.35
2023-10-15T18:46:17.143Z,1.30
2023-10-15T18:48:43.831Z,1.20
2023-10-15T18:51:28.201Z,1.30
2023-10-15T18:53:58.778Z,1.65
2023-10-15T18:56:25.440Z,1.60
2023-10-15T18:58:52.843Z,1.65
2023-10-15T19:01:22.841Z,1.17
2023-10-15T19:03:49.738Z,1.10
2023-10-15T19:06:16.366Z,1.23
2023-10-15T19:08:42.852Z,1.33
2023-10-15T19:11:14.531Z,1.30
2023-10-15T19:13:44.358Z,1.50
2023-10-15T19:16:10.867Z,1.52
2023-10-15T19:18:43.201Z,1.45
2023-10-15T19:21:09.838Z,1.40
2023-10-15T19:23:36.534Z,1.70
2023-10-15T19:26:07.372Z,1.55
2023-10-15T19:28:35.322Z,1.60
2023-10-15T19:31:03.037Z,1.48
2023-10-15T19:33:32.988Z,1.70
2023-10-15T19:36:01.331Z,1.50
2023-10-15T19:38:28.722Z,1.70
2023-10-15T19:40:55.785Z,1.73
2023-10-15T19:43:22.872Z,1.80
2023-10-15T19:45:50.152Z,1.85
2023-10-15T19:48:17.968Z,1.50
2023-10-15T19:50:44.699Z,1.63
2023-10-15T19:53:12.252Z,1.83
2023-10-15T19:55:39.075Z,2.17
2023-10-15T19:58:06.779Z,2.20
2023-10-15T20:00:35.902Z,1.63
2023-10-15T20:03:02.994Z,1.73
2023-10-15T20:05:30.306Z,1.77
2023-10-15T20:07:56.906Z,1.70
2023-10-15T20:10:23.538Z,1.67
2023-10-15T20:12:52.782Z,1.77
2023-10-15T20:15:20.590Z,1.50
2023-10-15T20:17:48.117Z,1.63
2023-10-15T20:20:17.964Z,1.40
2023-10-15T20:22:46.752Z,1.63
2023-10-15T20:25:13.271Z,2.00
2023-10-15T20:27:41.132Z,1.50
2023-10-15T20:30:13.807Z,1.50
2023-10-15T20:35:11.480Z,1.35
2023-10-15T20:37:40.713Z,1.52
2023-10-15T20:40:12.450Z,1.55
2023-10-15T20:42:39.653Z,1.60
2023-10-15T20:45:08.517Z,1.60
2023-10-15T20:50:03.188Z,1.90
2023-10-15T20:52:29.707Z,1.85
2023-10-15T20:54:56.265Z,1.88
2023-10-15T20:57:22.758Z,2.40
2023-10-15T20:59:49.532Z,1.73
2023-10-15T21:02:16.082Z,2.83
2023-10-15T21:04:44.799Z,2.10
2023-10-15T21:07:11.276Z,2.00
2023-10-15T21:09:37.760Z,2.03
2023-10-15T21:12:05.429Z,2.17
2023-10-15T21:14:32.117Z,1.33
2023-10-15T21:16:58.583Z,1.40
2023-10-15T21:19:25.410Z,1.40
2023-10-15T21:21:51.934Z,2.03
2023-10-15T21:24:18.489Z,4.03
2023-10-15T21:26:45.030Z,2.83
2023-10-15T21:29:12.484Z,3.33
2023-10-15T21:31:39.027Z,3.40
2023-10-15T21:34:05.527Z,3.00
2023-10-15T21:36:32.042Z,5.90
2023-10-15T21:38:58.596Z,2.63
2023-10-15T21:41:26.368Z,1.88
2023-10-15T21:43:52.891Z,3.38
2023-10-15T21:46:19.616Z,1.90
2023-10-15T21:48:48.293Z,1.65
2023-10-15T21:51:14.966Z,2.97
2023-10-15T21:53:41.465Z,4.15
2023-10-15T21:56:09.475Z,6.88
2023-10-15T21:58:36.146Z,5.22
2023-10-15T22:01:02.647Z,1.95
2023-10-15T22:03:30.085Z,2.85
2023-10-15T22:05:56.601Z,1.90
2023-10-15T22:08:26.424Z,1.50
2023-10-15T22:10:53.419Z,1.58
2023-10-15T22:13:19.836Z,1.42
2023-10-15T22:15:48.860Z,1.55
2023-10-15T22:18:16.546Z,1.48
2023-10-15T22:20:47.961Z,1.67
2023-10-15T22:23:18.607Z,1.30
2023-10-15T22:25:48.075Z,3.28
2023-10-15T22:28:18.044Z,5.57
2023-10-15T22:30:48.720Z,4.35
2023-10-15T22:33:15.883Z,7.25
2023-10-15T22:35:45.056Z,4.65
2023-10-15T22:38:18.196Z,3.70
2023-10-15T22:40:45.290Z,3.38
2023-10-15T22:43:12.331Z,3.80
2023-10-15T22:45:38.800Z,2.50
2023-10-15T22:48:05.863Z,4.05
2023-10-15T22:50:35.257Z,3.15
2023-10-15T22:53:01.823Z,3.03
2023-10-15T22:55:28.459Z,2.15
2023-10-15T22:57:54.974Z,1.75
2023-10-15T23:00:24.197Z,1.70
2023-10-15T23:02:52.919Z,1.83
2023-10-15T23:05:22.989Z,1.83
2023-10-15T23:07:50.547Z,1.80
2023-10-15T23:10:17.014Z,1.95
2023-10-15T23:12:46.685Z,1.67
2023-10-15T23:15:17.197Z,1.65
2023-10-15T23:17:45.173Z,2.03
2023-10-15T23:20:24.897Z,1.80
2023-10-15T23:22:53.003Z,1.52
2023-10-15T23:25:20.597Z,2.15
2023-10-15T23:27:49.426Z,1.77
2023-10-15T23:30:16.906Z,1.80
2023-10-15T23:32:48.905Z,1.70
2023-10-15T23:35:15.367Z,1.73
2023-10-15T23:37:41.883Z,1.60
2023-10-15T23:40:14.297Z,1.90
2023-10-15T23:42:44.035Z,2.00
2023-10-15T23:45:12.648Z,1.80
2023-10-15T23:47:42.342Z,1.98
2023-10-15T23:50:16.396Z,1.92
2023-10-15T23:52:44.907Z,2.00
2023-10-15T23:55:17.075Z,1.90
2023-10-15T23:57:50.802Z,2.08
